Time;durP1;ratioP1;P1;durP2;ratioP2;P2;SDS_P1;SDS_P2;PMS_P1;PMS_P2;Temp;Humidity;BMP_temperature;BMP_pressure;BME280_temperature;BME280_humidity;BME280_pressure;Samples;Min_cycle;Max_cycle;Signal;HPM_P1;HPM_P2
2022/08/19 00:00:21;;;;;;;16.90;15.10;;;21.20;99.90;;;;;;5009349;28;20046;-68
2022/08/19 00:02:47;;;;;;;16.95;14.50;;;21.20;99.90;;;;;;5008466;28;20116;-68
2022/08/19 00:05:15;;;;;;;17.83;15.55;;;21.10;99.90;;;;;;5008683;28;20065;-68
2022/08/19 00:07:42;;;;;;;15.13;13.63;;;21.10;99.90;;;;;;5008345;28;20022;-68
2022/08/19 00:10:14;;;;;;;17.08;14.77;;;21.10;99.90;;;;;;5009069;28;20084;-67
2022/08/19 00:12:40;;;;;;;17.38;15.18;;;21.10;99.90;;;;;;5010334;28;20030;-67
2022/08/19 00:15:11;;;;;;;16.17;14.52;;;21.10;99.90;;;;;;5009009;28;20026;-67
2022/08/19 00:17:38;;;;;;;16.73;14.77;;;21.10;99.90;;;;;;5007744;28;20398;-67
2022/08/19 00:20:05;;;;;;;18.50;15.27;;;21.00;99.90;;;;;;5011586;28;20042;-68
2022/08/19 00:22:31;;;;;;;15.95;14.25;;;21.10;99.90;;;;;;5009444;28;20030;-67
2022/08/19 00:24:56;;;;;;;19.73;15.75;;;21.10;99.90;;;;;;5008972;28;20418;-68
2022/08/19 00:27:22;;;;;;;16.92;15.10;;;21.00;99.90;;;;;;5004276;28;20022;-67
2022/08/19 00:29:48;;;;;;;19.20;14.48;;;21.00;99.90;;;;;;5011946;28;20034;-68
2022/08/19 00:32:13;;;;;;;16.85;15.02;;;21.10;99.90;;;;;;5015118;28;20474;-68
2022/08/19 00:34:39;;;;;;;16.27;14.50;;;21.10;99.90;;;;;;5014342;28;20050;-67
2022/08/19 00:37:05;;;;;;;19.63;16.17;;;21.00;99.90;;;;;;5012802;28;20040;-68
2022/08/19 00:39:30;;;;;;;18.02;15.63;;;21.00;99.90;;;;;;5014031;28;20133;-67
2022/08/19 00:41:57;;;;;;;19.98;16.25;;;21.00;99.90;;;;;;5010201;28;20033;-68
2022/08/19 00:44:26;;;;;;;18.23;15.52;;;21.00;99.90;;;;;;5012265;28;20033;-67
2022/08/19 00:46:53;;;;;;;18.75;14.52;;;21.00;99.90;;;;;;5014988;28;20064;-67
2022/08/19 00:49:26;;;;;;;22.20;15.65;;;20.90;99.90;;;;;;5012658;28;20080;-68
2022/08/19 00:52:14;;;;;;;16.63;14.45;;;20.90;99.90;;;;;;5012287;28;20023;-68
2022/08/19 00:54:41;;;;;;;15.75;13.98;;;20.90;99.90;;;;;;5013956;28;20037;-67
2022/08/19 00:57:12;;;;;;;18.77;15.27;;;20.80;99.90;;;;;;5014942;28;20025;-69
2022/08/19 00:59:38;;;;;;;;;;;20.80;99.90;;;;;;5013163;28;20459;-68
2022/08/19 01:02:04;;;;;;;17.55;14.88;;;20.80;99.90;;;;;;5012203;28;20468;-67
2022/08/19 01:04:30;;;;;;;19.33;16.05;;;20.80;99.90;;;;;;5012566;28;20101;-67
2022/08/19 01:06:57;;;;;;;18.92;15.82;;;20.80;99.90;;;;;;5012204;28;20021;-67
2022/08/19 01:09:23;;;;;;;18.20;15.10;;;20.70;99.90;;;;;;5014277;28;20049;-69
2022/08/19 01:11:49;;;;;;;18.27;16.38;;;20.80;99.90;;;;;;5011167;28;20482;-68
2022/08/19 01:14:16;;;;;;;19.65;15.88;;;20.80;99.90;;;;;;5006603;28;20367;-68
2022/08/19 01:16:45;;;;;;;17.58;15.77;;;20.80;99.90;;;;;;5013845;28;20034;-68
2022/08/19 01:19:30;;;;;;;18.58;15.25;;;20.80;99.90;;;;;;5011879;28;20032;-68
2022/08/19 01:22:05;;;;;;;18.10;16.10;;;20.80;99.90;;;;;;5014371;28;20041;-67
2022/08/19 01:24:31;;;;;;;18.48;15.88;;;20.80;99.90;;;;;;5011222;28;20547;-67
2022/08/19 01:26:57;;;;;;;20.15;15.73;;;20.80;99.90;;;;;;5012091;28;20054;-67
2022/08/19 01:29:23;;;;;;;19.13;16.20;;;20.80;99.90;;;;;;5014584;28;20038;-67
2022/08/19 01:31:51;;;;;;;23.95;16.70;;;20.80;99.90;;;;;;5012839;28;20030;-67
2022/08/19 01:34:18;;;;;;;19.33;16.25;;;20.80;99.90;;;;;;5012548;28;20026;-67
2022/08/19 01:36:47;;;;;;;17.45;15.52;;;20.80;99.90;;;;;;5013563;28;20037;-67
2022/08/19 01:39:16;;;;;;;20.30;17.23;;;20.80;99.90;;;;;;5004598;28;20030;-67
2022/08/19 01:41:42;;;;;;;19.98;15.48;;;20.80;99.90;;;;;;5013349;28;20072;-67
2022/08/19 01:44:09;;;;;;;20.58;16.50;;;20.80;99.90;;;;;;5011512;28;20034;-66
2022/08/19 01:46:35;;;;;;;22.15;17.45;;;20.80;99.90;;;;;;5013152;28;20030;-67
2022/08/19 01:49:03;;;;;;;19.17;16.52;;;20.80;99.90;;;;;;5011452;28;20030;-67
2022/08/19 01:51:30;;;;;;;22.25;18.35;;;20.70;99.90;;;;;;5010766;28;20084;-67
2022/08/19 01:53:56;;;;;;;18.65;16.67;;;20.80;99.90;;;;;;5012027;28;20040;-66
2022/08/19 01:56:22;;;;;;;22.15;17.25;;;20.80;99.90;;;;;;5011565;28;20076;-66
2022/08/19 01:58:56;;;;;;;19.70;16.83;;;20.80;99.90;;;;;;5012830;28;20029;-67
2022/08/19 02:01:22;;;;;;;24.40;18.00;;;20.80;99.90;;;;;;5013676;28;20470;-67
2022/08/19 02:03:48;;;;;;;20.48;18.00;;;20.70;99.90;;;;;;5012718;28;20045;-66
2022/08/19 02:06:14;;;;;;;23.00;18.60;;;20.70;99.90;;;;;;5010384;28;20088;-68
2022/08/19 02:08:40;;;;;;;19.60;16.75;;;20.70;99.90;;;;;;5003807;28;20530;-66
2022/08/19 02:11:07;;;;;;;18.52;16.55;;;20.70;99.90;;;;;;5003737;28;20022;-68
2022/08/19 02:13:34;;;;;;;24.10;18.27;;;20.70;99.90;;;;;;5002436;28;20376;-68
2022/08/19 02:16:00;;;;;;;19.92;17.77;;;20.70;99.90;;;;;;5008108;28;20455;-68
2022/08/19 02:18:26;;;;;;;21.50;17.58;;;20.70;99.90;;;;;;5009423;28;20026;-68
2022/08/19 02:20:52;;;;;;;19.02;16.48;;;20.60;99.90;;;;;;5004752;28;20042;-68
2022/08/19 02:23:18;;;;;;;24.45;19.27;;;20.60;99.90;;;;;;5004409;28;20041;-68
2022/08/19 02:25:48;;;;;;;23.73;19.08;;;20.60;99.90;;;;;;5008231;28;20073;-68
2022/08/19 02:28:14;;;;;;;21.00;18.05;;;20.60;99.90;;;;;;5010887;28;20026;-69
2022/08/19 02:30:41;;;;;;;20.45;18.30;;;20.50;99.90;;;;;;5012015;28;20380;-69
2022/08/19 02:33:07;;;;;;;24.35;19.52;;;20.50;99.90;;;;;;5012934;28;20029;-69
2022/08/19 02:35:32;;;;;;;21.95;18.73;;;20.40;99.90;;;;;;5012384;28;20034;-69
2022/08/19 02:40:50;;;;;;;28.73;21.23;;;20.50;99.90;;;;;;5011819;28;20036;-68
2022/08/19 02:43:16;;;;;;;22.08;19.30;;;20.40;99.90;;;;;;5002600;28;20108;-69
2022/08/19 02:45:41;;;;;;;25.05;20.67;;;20.40;99.90;;;;;;5009373;28;20032;-68
2022/08/19 02:48:08;;;;;;;26.30;20.58;;;20.30;99.90;;;;;;5010832;28;20034;-68
2022/08/19 02:50:37;;;;;;;23.27;20.67;;;20.40;99.90;;;;;;5009488;28;20037;-67
2022/08/19 02:53:03;;;;;;;28.90;23.40;;;20.30;99.90;;;;;;5012776;28;20026;-67
2022/08/19 02:55:28;;;;;;;24.67;20.48;;;20.40;99.90;;;;;;5012619;28;20381;-67
2022/08/19 02:57:54;;;;;;;29.48;22.42;;;20.40;99.90;;;;;;5012192;28;20522;-67
2022/08/19 03:00:20;;;;;;;25.45;21.58;;;20.40;99.90;;;;;;5012671;28;20129;-68
2022/08/19 03:02:46;;;;;;;28.90;22.42;;;20.30;99.90;;;;;;5013185;28;20026;-67
2022/08/19 03:05:12;;;;;;;31.05;23.55;;;20.20;99.90;;;;;;5015938;28;20489;-68
2022/08/19 03:07:38;;;;;;;24.05;19.27;;;20.20;99.90;;;;;;5018349;28;20513;-67
2022/08/19 03:10:05;;;;;;;26.90;22.13;;;20.10;99.90;;;;;;5008878;28;20034;-67
2022/08/19 03:12:31;;;;;;;28.15;23.98;;;20.00;99.90;;;;;;5018322;28;20075;-69
2022/08/19 03:14:56;;;;;;;30.55;23.23;;;20.00;99.90;;;;;;5016836;28;20022;-69
2022/08/19 03:17:22;;;;;;;30.77;23.67;;;20.00;99.90;;;;;;5010956;28;20040;-68
2022/08/19 03:19:48;;;;;;;30.02;23.95;;;20.00;99.90;;;;;;5011784;28;20117;-68
2022/08/19 03:22:13;;;;;;;29.45;24.55;;;20.10;99.90;;;;;;5012476;28;20034;-69
2022/08/19 03:24:40;;;;;;;25.27;22.38;;;20.10;99.90;;;;;;5011361;28;20064;-68
2022/08/19 03:27:05;;;;;;;29.90;23.10;;;20.00;99.90;;;;;;5010860;28;20030;-67
2022/08/19 03:29:32;;;;;;;23.95;19.80;;;20.00;99.90;;;;;;5012072;28;20554;-66
2022/08/19 03:32:00;;;;;;;32.95;24.63;;;19.90;99.90;;;;;;5013711;28;20474;-67
2022/08/19 03:34:30;;;;;;;30.08;24.13;;;19.90;99.90;;;;;;5013363;28;20542;-68
2022/08/19 03:36:59;;;;;;;28.55;24.92;;;19.90;99.90;;;;;;5011287;28;20084;-69
2022/08/19 03:39:25;;;;;;;32.13;24.67;;;19.90;99.90;;;;;;5011776;28;20052;-68
2022/08/19 03:41:53;;;;;;;30.85;25.55;;;19.90;99.90;;;;;;5011405;28;20101;-69
2022/08/19 03:44:21;;;;;;;28.63;23.20;;;19.90;99.90;;;;;;5003503;28;20485;-67
2022/08/19 03:46:51;;;;;;;30.45;24.88;;;19.90;99.90;;;;;;5009002;28;20030;-68
2022/08/19 03:49:17;;;;;;;27.50;23.10;;;19.90;99.90;;;;;;5003930;28;20125;-67
2022/08/19 03:51:43;;;;;;;32.95;24.70;;;19.90;99.90;;;;;;5008580;28;20042;-67
2022/08/19 03:54:12;;;;;;;27.58;22.27;;;19.90;99.90;;;;;;5011629;28;20471;-67
2022/08/19 03:56:39;;;;;;;30.52;25.65;;;19.80;99.90;;;;;;5008320;28;20394;-67
2022/08/19 03:59:07;;;;;;;29.48;24.98;;;19.80;99.90;;;;;;5009179;28;20030;-67
2022/08/19 04:01:34;;;;;;;32.10;26.60;;;19.80;99.90;;;;;;5010868;28;20103;-67
2022/08/19 04:04:00;;;;;;;35.90;27.63;;;19.80;99.90;;;;;;5011187;28;20076;-67
2022/08/19 04:06:30;;;;;;;35.65;26.20;;;19.90;99.90;;;;;;5010704;28;20038;-67
2022/08/19 04:08:57;;;;;;;26.63;23.10;;;19.80;99.90;;;;;;5011182;28;20773;-67
2022/08/19 04:11:30;;;;;;;30.63;24.13;;;19.80;99.90;;;;;;5009597;28;20040;-67
2022/08/19 04:13:56;;;;;;;30.70;26.85;;;19.80;99.90;;;;;;5005746;28;20030;-67
2022/08/19 04:16:24;;;;;;;31.23;25.08;;;19.80;99.90;;;;;;5011338;28;20060;-67
2022/08/19 04:18:50;;;;;;;34.20;27.45;;;19.80;99.90;;;;;;5010614;28;20025;-67
2022/08/19 04:21:22;;;;;;;30.27;25.23;;;19.80;99.90;;;;;;5008631;28;20042;-67
2022/08/19 04:23:49;;;;;;;32.50;27.13;;;19.70;99.90;;;;;;5008046;28;20029;-67
2022/08/19 04:26:16;;;;;;;28.80;25.25;;;19.80;99.90;;;;;;5008600;28;20057;-67
2022/08/19 04:28:43;;;;;;;32.08;26.58;;;19.70;99.90;;;;;;5010482;28;20107;-67
2022/08/19 04:31:14;;;;;;;38.42;30.10;;;19.70;99.90;;;;;;5008573;28;20109;-67
2022/08/19 04:33:40;;;;;;;34.60;27.00;;;19.70;99.90;;;;;;5007925;28;20036;-68
2022/08/19 04:36:06;;;;;;;34.55;28.20;;;19.70;99.90;;;;;;5008653;28;20022;-68
2022/08/19 04:38:32;;;;;;;32.80;25.05;;;19.70;99.90;;;;;;5010951;28;20049;-68
2022/08/19 04:43:44;;;;;;;37.50;25.80;;;19.70;99.90;;;;;;5009203;28;20112;-68
2022/08/19 04:46:12;;;;;;;33.30;27.05;;;19.70;99.90;;;;;;5003896;28;20514;-72
2022/08/19 04:48:38;;;;;;;33.53;26.23;;;19.70;99.90;;;;;;5008845;28;20521;-70
2022/08/19 04:51:12;;;;;;;30.55;26.35;;;19.70;99.90;;;;;;5008465;28;20042;-70
2022/08/19 04:53:39;;;;;;;31.10;25.27;;;19.70;99.90;;;;;;5003718;28;20037;-69
2022/08/19 04:56:11;;;;;;;35.95;28.75;;;19.70;99.90;;;;;;5004530;28;20030;-70
2022/08/19 04:58:39;;;;;;;33.20;26.83;;;19.80;99.90;;;;;;5003000;28;20026;-68
2022/08/19 05:01:05;;;;;;;33.42;27.00;;;19.80;99.90;;;;;;5009794;28;20501;-69
2022/08/19 05:03:33;;;;;;;36.33;28.10;;;19.80;99.90;;;;;;4999250;28;20066;-69
2022/08/19 05:06:04;;;;;;;33.00;27.20;;;19.80;99.90;;;;;;4995578;28;20105;-70
2022/08/19 05:08:30;;;;;;;35.53;26.73;;;19.80;99.90;;;;;;5006669;28;20028;-67
2022/08/19 05:10:57;;;;;;;32.15;26.05;;;19.80;99.90;;;;;;4999456;28;20034;-69
2022/08/19 05:13:23;;;;;;;33.95;28.42;;;19.80;99.90;;;;;;5005957;28;20084;-69
2022/08/19 05:15:59;;;;;;;31.80;26.90;;;19.80;99.90;;;;;;5007340;28;20037;-68
2022/08/19 05:23:59;;;;;;;31.08;25.50;;;19.90;99.90;;;;;;5002222;28;20033;-68
2022/08/19 05:26:28;;;;;;;31.13;25.88;;;19.90;99.90;;;;;;5003173;28;20030;-69
2022/08/19 05:28:54;;;;;;;33.05;29.05;;;19.90;99.90;;;;;;4999984;28;20849;-69
2022/08/19 05:31:20;;;;;;;34.15;27.77;;;19.90;99.90;;;;;;5005831;28;20030;-69
2022/08/19 05:33:46;;;;;;;33.20;27.17;;;19.90;99.90;;;;;;5005731;28;20026;-69
2022/08/19 05:36:13;;;;;;;34.15;29.33;;;19.90;99.90;;;;;;5006956;28;20034;-69
2022/08/19 05:38:38;;;;;;;32.58;28.23;;;19.90;99.90;;;;;;5006405;28;20386;-68
2022/08/19 05:41:09;;;;;;;30.17;26.50;;;19.90;99.90;;;;;;5007890;28;20038;-70
2022/08/19 05:43:36;;;;;;;27.85;24.83;;;19.90;99.90;;;;;;4998813;28;20475;-69
2022/08/19 05:46:05;;;;;;;35.53;28.88;;;19.90;99.90;;;;;;5002680;28;20022;-69
2022/08/19 05:48:34;;;;;;;32.22;27.02;;;20.00;99.90;;;;;;5001864;28;20113;-69
2022/08/19 05:51:06;;;;;;;37.10;24.83;;;20.00;99.90;;;;;;5002037;28;20058;-69
2022/08/19 05:53:33;;;;;;;34.35;26.58;;;20.00;99.90;;;;;;5013603;28;20037;-70
2022/08/19 05:56:10;;;;;;;29.38;25.33;;;20.00;99.90;;;;;;5010286;28;20133;-79
2022/08/19 05:58:37;;;;;;;34.08;27.92;;;20.00;99.90;;;;;;5011077;28;20042;-75
2022/08/19 06:01:05;;;;;;;33.78;28.02;;;20.00;99.90;;;;;;5009935;28;20134;-74
2022/08/19 06:03:33;;;;;;;29.58;26.08;;;20.00;99.90;;;;;;5011980;28;20026;-73
2022/08/19 06:05:59;;;;;;;31.73;24.55;;;20.00;99.90;;;;;;5008799;28;20038;-72
2022/08/19 06:08:26;;;;;;;29.85;24.85;;;20.00;99.90;;;;;;5013287;28;20120;-73
2022/08/19 06:10:52;;;;;;;27.83;24.42;;;20.00;99.90;;;;;;5009636;28;20052;-69
2022/08/19 06:13:19;;;;;;;32.00;25.30;;;20.00;99.90;;;;;;5012697;28;20030;-69
2022/08/19 06:15:46;;;;;;;34.97;27.35;;;20.00;99.90;;;;;;5010828;28;20079;-71
2022/08/19 06:18:13;;;;;;;33.50;27.27;;;20.00;99.90;;;;;;5010166;28;20057;-69
2022/08/19 06:20:39;;;;;;;28.00;25.02;;;20.00;99.90;;;;;;5010221;28;20459;-79
2022/08/19 06:23:05;;;;;;;30.55;25.60;;;20.00;99.90;;;;;;5013016;28;20040;-77
2022/08/19 06:25:30;;;;;;;32.42;26.48;;;19.90;99.90;;;;;;5013186;28;20430;-77
2022/08/19 06:27:56;;;;;;;32.53;26.77;;;20.00;99.90;;;;;;5007783;28;20029;-78
2022/08/19 06:30:22;;;;;;;31.65;24.55;;;20.00;99.90;;;;;;5005481;28;20084;-71
2022/08/19 06:32:47;;;;;;;36.67;28.95;;;20.00;99.90;;;;;;5002905;28;20080;-70
2022/08/19 06:35:14;;;;;;;31.80;27.30;;;19.90;99.90;;;;;;5009317;28;20077;-70
2022/08/19 06:37:40;;;;;;;33.38;27.98;;;19.80;99.90;;;;;;5003863;28;20045;-70
2022/08/19 06:40:08;;;;;;;30.67;26.52;;;19.80;99.90;;;;;;5006591;28;20124;-70
2022/08/19 06:42:34;;;;;;;36.00;28.20;;;19.70;99.90;;;;;;5009974;28;20032;-69
2022/08/19 06:45:03;;;;;;;33.33;27.73;;;19.60;99.90;;;;;;5011736;28;20109;-70
2022/08/19 06:47:30;;;;;;;33.58;27.23;;;19.50;99.90;;;;;;5012575;28;20118;-69
2022/08/19 06:50:02;;;;;;;34.80;28.48;;;19.50;99.90;;;;;;5007409;28;20116;-70
2022/08/19 06:52:29;;;;;;;35.75;30.65;;;19.40;99.90;;;;;;5010114;28;20459;-70
2022/08/19 06:54:56;;;;;;;37.10;30.80;;;19.50;99.90;;;;;;5010371;28;20036;-70
2022/08/19 06:57:22;;;;;;;29.73;25.60;;;19.50;99.90;;;;;;5011802;28;20116;-69
2022/08/19 06:59:48;;;;;;;29.17;26.02;;;19.50;99.90;;;;;;5008738;28;20172;-69
2022/08/19 07:02:14;;;;;;;32.80;28.90;;;19.50;99.90;;;;;;5009705;28;20414;-70
2022/08/19 07:04:39;;;;;;;39.20;31.02;;;19.50;99.90;;;;;;5004823;28;20386;-69
2022/08/19 07:07:09;;;;;;;31.80;26.63;;;19.60;99.90;;;;;;5011186;28;20605;-69
2022/08/19 07:09:38;;;;;;;31.23;26.00;;;19.70;99.90;;;;;;5011192;28;20116;-69
2022/08/19 07:12:06;;;;;;;38.17;28.88;;;19.70;99.90;;;;;;5010764;28;20026;-69
2022/08/19 07:14:32;;;;;;;37.05;27.70;;;19.70;99.90;;;;;;5011803;28;20298;-70
2022/08/19 07:16:58;;;;;;;34.20;27.50;;;19.70;99.90;;;;;;5012474;28;20243;-69
2022/08/19 07:19:28;;;;;;;35.95;27.83;;;19.70;99.90;;;;;;5011601;28;20491;-69
2022/08/19 07:21:54;;;;;;;;;;;19.80;99.90;;;;;;5010318;28;20848;-68
2022/08/19 07:24:23;;;;;;;30.65;25.98;;;19.80;99.90;;;;;;5015526;28;19913;-69
2022/08/19 07:26:50;;;;;;;32.10;26.38;;;19.80;99.90;;;;;;5011071;28;20022;-73
2022/08/19 07:29:16;;;;;;;30.35;26.00;;;19.80;99.90;;;;;;5006647;28;20131;-71
2022/08/19 07:31:42;;;;;;;31.35;25.83;;;19.80;99.90;;;;;;5004943;28;20379;-71
2022/08/19 07:34:11;;;;;;;35.63;26.85;;;19.80;99.90;;;;;;5004239;28;20035;-71
2022/08/19 07:36:40;;;;;;;30.15;25.80;;;19.90;99.90;;;;;;5010971;28;20022;-71
2022/08/19 07:39:08;;;;;;;31.75;25.60;;;19.90;99.90;;;;;;5009440;28;20116;-70
2022/08/19 07:41:36;;;;;;;31.98;26.67;;;19.90;99.90;;;;;;5010142;28;20034;-72
2022/08/19 07:44:03;;;;;;;28.80;24.88;;;19.90;99.90;;;;;;5010608;28;20463;-72
2022/08/19 07:46:33;;;;;;;28.67;23.42;;;19.90;99.90;;;;;;5012131;28;20379;-71
2022/08/19 07:49:00;;;;;;;;;;;19.90;99.90;;;;;;5011574;28;20026;-71
2022/08/19 07:51:26;;;;;;;28.20;23.65;;;19.80;99.90;;;;;;5012035;28;19913;-70
2022/08/19 07:53:52;;;;;;;32.45;25.50;;;19.80;99.90;;;;;;5008434;28;20040;-71
2022/08/19 07:56:20;;;;;;;36.78;25.10;;;19.80;99.90;;;;;;5009642;28;20037;-70
2022/08/19 07:58:48;;;;;;;29.63;24.92;;;19.80;99.90;;;;;;5011054;28;20049;-72
2022/08/19 08:01:17;;;;;;;28.17;25.17;;;19.80;99.90;;;;;;4991715;28;20050;-71
2022/08/19 08:09:32;;;;;;;31.00;26.70;;;19.40;99.90;;;;;;4931553;29;20031;-71
2022/08/19 08:12:05;;;;;;;34.00;28.15;;;19.10;99.90;;;;;;4970978;28;20523;-71
2022/08/19 08:14:36;;;;;;;34.63;27.77;;;19.00;99.90;;;;;;4989645;28;20328;-72
2022/08/19 08:17:03;;;;;;;34.53;27.52;;;18.80;99.90;;;;;;4989858;28;20034;-72
2022/08/19 08:19:29;;;;;;;33.45;28.00;;;18.70;99.90;;;;;;4989537;28;20022;-73
2022/08/19 08:21:59;;;;;;;33.33;28.45;;;18.60;99.90;;;;;;4990340;28;20610;-72
2022/08/19 08:24:27;;;;;;;41.65;30.38;;;18.50;99.90;;;;;;4991771;28;20026;-72
2022/08/19 08:26:53;;;;;;;34.70;29.20;;;18.40;99.90;;;;;;4989804;28;20026;-73
2022/08/19 08:29:19;;;;;;;34.05;28.80;;;18.40;99.90;;;;;;4991968;28;20029;-73
2022/08/19 08:31:45;;;;;;;35.50;29.00;;;18.30;99.90;;;;;;4990700;28;20364;-74
2022/08/19 08:34:13;;;;;;;38.70;29.45;;;18.30;99.90;;;;;;4990449;28;20023;-73
2022/08/19 08:36:45;;;;;;;36.67;29.08;;;18.50;99.90;;;;;;4979475;28;20050;-72
2022/08/19 08:39:13;;;;;;;34.25;28.55;;;18.40;99.90;;;;;;4991272;28;20029;-72
2022/08/19 08:42:01;;;;;;;34.85;29.40;;;18.40;99.90;;;;;;4991217;28;20042;-72
2022/08/19 08:44:36;;;;;;;37.35;28.33;;;18.50;99.90;;;;;;4991310;28;20030;-72
2022/08/19 08:47:10;;;;;;;32.00;26.42;;;18.60;99.90;;;;;;4991443;28;20022;-71
2022/08/19 08:49:45;;;;;;;38.03;30.02;;;18.50;99.90;;;;;;4992677;28;20038;-71
2022/08/19 08:52:25;;;;;;;34.17;29.00;;;18.50;99.90;;;;;;4988493;28;20030;-70
2022/08/19 08:54:53;;;;;;;;;;;18.60;99.90;;;;;;4995037;28;20026;-68
2022/08/19 08:57:51;;;;;;;38.47;28.38;;;18.60;99.90;;;;;;4994438;28;19949;-69
2022/08/19 09:00:29;;;;;;;33.47;27.17;;;18.70;99.90;;;;;;5000791;28;20142;-68
2022/08/19 09:02:57;;;;;;;35.47;26.00;;;18.90;99.90;;;;;;5013297;28;20455;-69
2022/08/19 09:05:27;;;;;;;34.13;27.67;;;19.10;99.90;;;;;;5007006;28;20040;-69
2022/08/19 09:08:05;;;;;;;35.13;26.95;;;19.20;99.90;;;;;;5010216;28;20080;-68
2022/08/19 09:10:51;;;;;;;32.60;26.00;;;19.40;99.90;;;;;;5012032;28;20492;-68
2022/08/19 09:13:55;;;;;;;30.48;25.63;;;19.50;99.90;;;;;;5010423;28;20096;-69
2022/08/19 09:16:23;;;;;;;31.88;25.90;;;19.70;99.90;;;;;;5010484;28;20037;-69
2022/08/19 09:18:58;;;;;;;27.27;23.30;;;19.70;99.90;;;;;;5011530;28;20076;-68
2022/08/19 09:21:25;;;;;;;29.25;23.58;;;19.80;99.90;;;;;;5011630;28;20025;-68
2022/08/19 09:23:52;;;;;;;31.08;23.45;;;19.90;99.90;;;;;;5010381;28;20045;-69
2022/08/19 09:26:21;;;;;;;30.80;24.48;;;19.90;99.90;;;;;;5013527;28;20414;-68
2022/08/19 09:28:49;;;;;;;31.90;23.98;;;19.90;99.90;;;;;;5011393;28;20022;-69
2022/08/19 09:31:18;;;;;;;25.95;23.15;;;20.00;99.90;;;;;;5013273;28;20089;-69
2022/08/19 09:33:44;;;;;;;26.73;22.55;;;20.00;99.90;;;;;;5013251;28;20037;-68
2022/08/19 09:36:12;;;;;;;24.10;21.60;;;20.00;99.90;;;;;;5008766;28;20078;-68
2022/08/19 09:38:40;;;;;;;27.48;23.42;;;20.00;99.90;;;;;;5003111;28;20034;-68
2022/08/19 09:41:10;;;;;;;27.77;23.38;;;20.00;99.90;;;;;;5010748;28;20113;-69
2022/08/19 09:43:36;;;;;;;;;;;20.00;99.90;;;;;;5013426;28;20381;-68
2022/08/19 09:46:06;;;;;;;29.58;22.90;;;20.10;99.90;;;;;;5010780;28;19913;-68
2022/08/19 09:48:36;;;;;;;29.17;21.33;;;20.00;99.90;;;;;;5002924;28;20030;-69
2022/08/19 09:51:07;;;;;;;25.02;21.75;;;20.00;99.90;;;;;;5009320;28;20034;-68
2022/08/19 09:53:34;;;;;;;23.77;20.52;;;19.80;99.90;;;;;;5013966;28;20030;-69
2022/08/19 09:56:00;;;;;;;23.58;20.83;;;19.80;99.90;;;;;;5008496;28;20029;-69
2022/08/19 09:58:27;;;;;;;29.63;23.33;;;19.70;99.90;;;;;;5012262;28;20026;-69
2022/08/19 10:00:54;;;;;;;25.15;21.85;;;19.80;99.90;;;;;;5011405;28;20128;-69
2022/08/19 10:03:20;;;;;;;25.65;19.23;;;19.90;99.90;;;;;;5009413;28;20034;-68
2022/08/19 10:05:49;;;;;;;22.40;19.00;;;19.90;99.90;;;;;;5006336;28;20087;-70
2022/08/19 10:08:27;;;;;;;23.77;19.10;;;20.00;99.90;;;;;;5012742;28;20057;-70
2022/08/19 10:10:54;;;;;;;24.17;20.13;;;20.00;99.90;;;;;;5010791;28;20095;-69
2022/08/19 10:13:25;;;;;;;24.27;18.77;;;20.10;99.90;;;;;;4996212;28;20093;-69
2022/08/19 10:15:53;;;;;;;23.48;18.15;;;20.20;99.90;;;;;;5012504;28;20092;-68
2022/08/19 10:18:20;;;;;;;24.50;18.85;;;20.30;99.90;;;;;;5014815;28;20073;-68
2022/08/19 10:20:47;;;;;;;23.20;19.17;;;20.30;99.90;;;;;;5015964;28;20041;-68
2022/08/19 10:23:14;;;;;;;23.85;19.80;;;20.10;99.90;;;;;;5013602;28;20029;-68
2022/08/19 10:25:41;;;;;;;20.85;18.65;;;19.90;99.90;;;;;;5005964;28;20029;-68
2022/08/19 10:28:07;;;;;;;24.85;19.80;;;19.80;99.90;;;;;;5012235;28;20132;-68
2022/08/19 10:30:35;;;;;;;25.10;21.40;;;19.70;99.90;;;;;;5012881;28;20034;-68
2022/08/19 10:33:01;;;;;;;22.08;19.55;;;19.70;99.90;;;;;;5012662;28;20025;-68
2022/08/19 10:35:29;;;;;;;27.73;21.27;;;19.60;99.90;;;;;;5006453;28;20524;-68
2022/08/19 10:37:58;;;;;;;24.05;20.20;;;19.60;99.90;;;;;;5005476;28;20466;-68
2022/08/19 10:40:26;;;;;;;26.55;20.67;;;19.60;99.90;;;;;;5005621;28;20042;-69
2022/08/19 10:42:52;;;;;;;23.30;19.73;;;19.60;99.90;;;;;;5003999;28;20569;-75
2022/08/19 10:45:18;;;;;;;30.10;19.50;;;19.60;99.90;;;;;;5005022;28;20030;-67
2022/08/19 10:47:43;;;;;;;20.40;18.38;;;19.70;99.90;;;;;;5005188;28;20042;-68
2022/08/19 10:52:54;;;;;;;21.85;15.65;;;19.90;99.90;;;;;;4995873;28;20048;-70
2022/08/19 10:58:21;;;;;;;19.88;17.27;;;20.20;99.90;;;;;;5012530;28;20044;-70
2022/08/19 11:00:56;;;;;;;21.35;16.70;;;20.40;99.90;;;;;;5008880;28;20132;-70
2022/08/19 11:03:22;;;;;;;18.85;15.38;;;20.50;99.90;;;;;;4998566;28;20065;-68
2022/08/19 11:06:03;;;;;;;16.10;13.90;;;20.60;99.90;;;;;;5005791;28;20026;-68
2022/08/19 11:08:30;;;;;;;15.68;13.93;;;20.70;99.90;;;;;;5003747;28;20037;-69
2022/08/19 11:11:00;;;;;;;16.58;14.32;;;20.70;99.90;;;;;;4999117;28;20080;-69
2022/08/19 11:13:33;;;;;;;18.55;13.45;;;20.80;99.90;;;;;;5016319;28;20372;-68
2022/08/19 11:16:06;;;;;;;11.98;10.77;;;20.80;99.90;;;;;;5001927;28;20042;-69
2022/08/19 11:18:33;;;;;;;14.10;12.60;;;20.80;99.90;;;;;;5003544;28;20042;-68
2022/08/19 11:21:07;;;;;;;17.10;12.13;;;20.80;99.90;;;;;;5002093;28;20034;-69
2022/08/19 11:23:33;;;;;;;12.85;11.13;;;20.90;99.90;;;;;;5002537;28;20113;-69
2022/08/19 11:26:00;;;;;;;14.38;12.52;;;21.00;99.90;;;;;;5001639;28;20104;-69
2022/08/19 11:28:26;;;;;;;12.93;11.38;;;21.10;99.90;;;;;;5001936;28;20033;-69
2022/08/19 11:30:52;;;;;;;12.90;11.38;;;21.20;99.90;;;;;;5005334;28;20103;-69
2022/08/19 11:33:18;;;;;;;14.75;10.38;;;21.30;99.90;;;;;;4997912;28;20030;-69
2022/08/19 11:35:44;;;;;;;13.70;11.32;;;21.40;99.90;;;;;;5000302;28;20026;-69
2022/08/19 11:38:11;;;;;;;12.35;10.48;;;21.60;99.90;;;;;;5004655;28;20100;-68
2022/08/19 11:40:37;;;;;;;12.35;10.07;;;21.70;99.90;;;;;;5002043;28;20099;-69
2022/08/19 11:43:04;;;;;;;11.10;10.07;;;21.80;99.90;;;;;;5001116;28;20543;-68
2022/08/19 11:45:30;;;;;;;11.75;10.00;;;21.90;99.90;;;;;;5005390;28;20034;-69
2022/08/19 11:47:56;;;;;;;12.50;10.25;;;22.10;99.90;;;;;;5004717;28;20030;-68
2022/08/19 11:50:23;;;;;;;10.43;9.35;;;22.20;99.90;;;;;;5003074;28;20104;-68
2022/08/19 11:52:49;;;;;;;14.77;9.40;;;22.30;99.90;;;;;;4998094;28;20065;-68
2022/08/19 11:55:15;;;;;;;11.05;9.80;;;22.30;99.90;;;;;;5010909;28;20083;-68
2022/08/19 11:57:43;;;;;;;14.80;9.70;;;22.30;99.90;;;;;;5008788;28;20044;-68
2022/08/19 12:00:11;;;;;;;11.55;9.55;;;22.40;99.90;;;;;;4996779;28;20086;-69
2022/08/19 12:02:36;;;;;;;17.25;9.63;;;22.30;99.90;;;;;;4995989;28;20092;-68
2022/08/19 12:05:03;;;;;;;15.40;13.60;;;22.40;99.90;;;;;;4991561;28;20026;-68
2022/08/19 12:07:31;;;;;;;19.75;14.20;;;22.30;99.90;;;;;;4992871;28;20026;-69
2022/08/19 12:09:57;;;;;;;18.77;14.57;;;22.30;99.90;;;;;;5002785;28;20622;-69
2022/08/19 12:12:24;;;;;;;17.98;14.85;;;22.30;99.90;;;;;;4996596;28;20109;-68
2022/08/19 12:14:56;;;;;;;18.70;14.77;;;22.30;99.90;;;;;;5004455;28;20060;-68
2022/08/19 12:17:22;;;;;;;22.45;14.48;;;22.20;99.90;;;;;;4991580;28;20030;-68
2022/08/19 12:19:48;;;;;;;15.05;12.98;;;22.20;99.90;;;;;;5003111;28;20034;-68
2022/08/19 12:22:14;;;;;;;16.17;12.70;;;22.20;99.90;;;;;;4981608;28;20037;-68
2022/08/19 12:24:39;;;;;;;13.63;11.23;;;22.10;99.90;;;;;;4995851;28;20033;-68
2022/08/19 12:27:05;;;;;;;12.05;10.15;;;22.10;99.90;;;;;;4999897;28;20030;-69
2022/08/19 12:29:30;;;;;;;14.98;12.15;;;22.10;99.90;;;;;;4993086;28;20486;-69
2022/08/19 12:32:00;;;;;;;16.50;12.15;;;22.10;99.90;;;;;;4996407;28;20027;-69
2022/08/19 12:34:29;;;;;;;14.15;12.50;;;22.10;99.90;;;;;;4993190;28;20031;-68
2022/08/19 12:36:57;;;;;;;14.73;12.45;;;22.00;99.90;;;;;;4986252;28;20634;-69
2022/08/19 12:39:24;;;;;;;14.52;12.45;;;21.90;99.90;;;;;;4993885;28;20035;-68
2022/08/19 12:41:50;;;;;;;17.30;14.02;;;21.90;99.90;;;;;;4997134;28;20034;-67
2022/08/19 12:44:16;;;;;;;17.50;15.13;;;21.80;99.90;;;;;;4985332;28;20465;-67
2022/08/19 12:46:42;;;;;;;16.30;14.68;;;21.70;99.90;;;;;;4984160;28;20471;-67
2022/08/19 12:49:08;;;;;;;15.82;13.45;;;21.70;99.90;;;;;;4986969;28;20030;-67
2022/08/19 12:51:33;;;;;;;19.35;15.50;;;21.70;99.90;;;;;;4983618;28;20038;-70
2022/08/19 12:53:59;;;;;;;18.92;16.73;;;21.70;99.90;;;;;;4984645;28;20034;-67